Time;durP1;ratioP1;P1;durP2;ratioP2;P2;SDS_P1;SDS_P2;PMS_P1;PMS_P2;Temp;Humidity;BMP_temperature;BMP_pressure;BME280_temperature;BME280_humidity;BME280_pressure;Samples;Min_cycle;Max_cycle;Signal;HPM_P1;HPM_P2
2022/10/15 00:01:12;;;;;;;31.75;17.55;;;;;;;13.23;64.32;99965.00;7790244;32;37923;-77
2022/10/15 00:05:29;;;;;;;35.67;19.00;;;;;;;13.22;63.86;99963.34;7776071;32;37048;-77
2022/10/15 00:09:45;;;;;;;33.80;18.35;;;;;;;12.90;65.29;99972.03;7777690;32;39643;-77
2022/10/15 00:14:01;;;;;;;36.78;19.30;;;;;;;12.91;64.60;99973.69;7783418;32;39875;-77
2022/10/15 00:18:16;;;;;;;30.05;17.60;;;;;;;13.08;65.53;99967.84;7792230;32;37870;-77
2022/10/15 00:22:33;;;;;;;32.95;17.87;;;;;;;13.35;63.95;99961.94;7775096;32;36849;-77
2022/10/15 00:26:48;;;;;;;36.97;18.87;;;;;;;13.20;64.10;99967.47;7782884;32;39133;-77
2022/10/15 00:31:10;;;;;;;37.45;18.35;;;;;;;12.82;64.84;99969.91;7767310;32;39630;-78
2022/10/15 00:35:26;;;;;;;32.63;18.37;;;;;;;12.81;64.34;99969.06;7777912;32;38670;-77
2022/10/15 00:39:43;;;;;;;34.58;20.27;;;;;;;12.75;64.67;99967.50;7776041;32;36977;-77
2022/10/15 00:44:25;;;;;;;33.67;18.50;;;;;;;12.50;67.37;99954.75;7765489;32;39767;-77
2022/10/15 00:48:42;;;;;;;35.83;19.17;;;;;;;12.40;67.35;99945.50;7780453;32;39985;-78
2022/10/15 00:53:09;;;;;;;35.42;18.73;;;;;;;12.02;68.87;99946.97;7783337;32;37959;-76
2022/10/15 00:57:25;;;;;;;33.22;17.65;;;;;;;12.07;68.34;99944.25;7755866;32;37665;-77
2022/10/15 01:01:41;;;;;;;31.90;18.10;;;;;;;12.46;66.54;99940.00;7769715;32;39499;-77
2022/10/15 01:05:58;;;;;;;36.58;20.90;;;;;;;12.46;65.93;99935.34;7777483;32;39972;-76
2022/10/15 01:10:15;;;;;;;34.33;17.90;;;;;;;12.25;67.40;99939.28;7757712;32;38120;-77
2022/10/15 01:14:51;;;;;;;32.80;17.77;;;;;;;12.34;66.87;99934.88;7776020;32;37625;-76
2022/10/15 01:19:26;;;;;;;32.15;17.45;;;;;;;12.23;66.71;99942.28;7766614;32;39229;-77
2022/10/15 01:24:13;;;;;;;30.95;18.05;;;;;;;12.22;65.90;99940.66;7767026;32;40829;-77
2022/10/15 01:28:53;;;;;;;36.30;19.02;;;;;;;12.29;66.08;99932.97;7764898;32;38120;-77
2022/10/15 01:33:18;;;;;;;35.35;17.90;;;;;;;12.16;66.52;99931.66;7766930;32;37703;-78
2022/10/15 01:37:38;;;;;;;28.48;17.05;;;;;;;11.75;67.36;99928.19;7764616;32;39942;-77
2022/10/15 01:42:00;;;;;;;33.33;18.62;;;;;;;12.23;65.47;99919.59;7771827;32;39966;-78
2022/10/15 01:46:25;;;;;;;27.87;17.70;;;;;;;11.99;66.12;99920.25;7777524;32;37957;-77
2022/10/15 01:50:48;;;;;;;35.88;16.90;;;;;;;12.23;65.24;99914.97;7777899;32;37127;-77
2022/10/15 01:55:05;;;;;;;30.80;19.13;;;;;;;12.51;64.18;99915.38;7775969;32;39332;-76
2022/10/15 01:59:28;;;;;;;31.55;18.05;;;;;;;12.32;64.55;99923.41;7789892;32;40007;-77
2022/10/15 02:03:48;;;;;;;36.90;20.40;;;;;;;12.16;65.60;99925.37;7763877;32;38791;-76
2022/10/15 02:08:29;;;;;;;31.87;19.17;;;;;;;12.02;65.86;99934.16;7773893;32;37653;-77
2022/10/15 02:12:51;;;;;;;33.70;17.83;;;;;;;11.85;66.98;99933.63;7758054;32;40031;-77
2022/10/15 02:17:11;;;;;;;31.70;18.23;;;;;;;12.19;64.96;99924.81;7765790;32;40510;-77
2022/10/15 02:21:43;;;;;;;36.42;19.23;;;;;;;11.71;67.16;99925.19;7758045;32;37558;-77
2022/10/15 02:25:59;;;;;;;31.23;17.60;;;;;;;12.21;65.05;99926.16;7762009;32;37156;-77
2022/10/15 02:30:16;;;;;;;36.33;19.25;;;;;;;12.12;65.42;99919.63;7790012;32;39459;-77
2022/10/15 02:34:33;;;;;;;33.90;20.00;;;;;;;11.99;66.49;99914.78;7782373;32;39908;-77
2022/10/15 02:38:50;;;;;;;34.47;19.52;;;;;;;12.29;65.90;99913.81;7771682;32;38627;-77
2022/10/15 02:43:08;;;;;;;35.00;20.52;;;;;;;12.19;66.24;99906.50;7763325;32;37977;-76
2022/10/15 02:47:24;;;;;;;33.20;19.00;;;;;;;11.72;68.14;99915.09;7749591;32;40018;-77
2022/10/15 02:51:45;;;;;;;31.27;19.12;;;;;;;11.97;66.36;99917.78;7763146;32;40527;-77
2022/10/15 02:56:00;;;;;;;35.15;19.45;;;;;;;12.19;64.99;99913.88;7772727;32;37859;-79
2022/10/15 03:00:17;;;;;;;37.92;19.77;;;;;;;11.94;65.98;99904.66;7777949;32;36966;-77
2022/10/15 03:04:33;;;;;;;35.58;19.70;;;;;;;12.06;65.10;99898.09;7762990;32;39199;-77
2022/10/15 03:08:49;;;;;;;32.50;19.33;;;;;;;11.56;67.10;99896.00;7762584;32;40781;-77
2022/10/15 03:13:06;;;;;;;38.03;20.23;;;;;;;11.68;66.27;99892.16;7762260;32;38067;-77
2022/10/15 03:17:22;;;;;;;33.85;17.85;;;;;;;11.69;67.03;99891.06;7780229;32;36696;-77
2022/10/15 03:21:38;;;;;;;40.03;21.08;;;;;;;11.91;66.11;99896.22;7789580;32;39237;-77
2022/10/15 03:25:54;;;;;;;32.33;18.73;;;;;;;11.63;66.45;99893.78;7780419;32;39641;-77
2022/10/15 03:30:10;;;;;;;31.40;18.55;;;;;;;11.96;64.86;99907.13;7762498;32;37997;-77
2022/10/15 03:34:26;;;;;;;53.22;21.50;;;;;;;12.10;64.73;99899.97;7766162;32;37989;-77
2022/10/15 03:38:42;;;;;;;33.47;19.75;;;;;;;11.60;66.54;99897.06;7781456;32;40388;-77
2022/10/15 03:42:58;;;;;;;41.50;21.40;;;;;;;11.79;65.93;99901.94;7793296;32;39984;-77
2022/10/15 03:47:15;;;;;;;170.07;22.67;;;;;;;11.55;67.52;99905.25;7793233;32;38515;-77
2022/10/15 03:51:31;;;;;;;52.97;21.35;;;;;;;11.55;67.57;99899.00;7781549;32;36841;-77
2022/10/15 03:55:47;;;;;;;76.32;22.00;;;;;;;11.41;68.21;99898.75;7765886;32;38994;-77
2022/10/15 04:00:05;;;;;;;659.85;41.65;;;;;;;11.43;68.66;99891.09;7775953;32;40596;-76
2022/10/15 04:04:21;;;;;;;44.78;19.40;;;;;;;10.86;70.67;99904.72;7792985;32;36816;-76
2022/10/15 04:08:37;;;;;;;273.25;29.40;;;;;;;11.53;68.23;99899.25;7762805;32;37112;-76
2022/10/15 04:12:53;;;;;;;268.73;26.52;;;;;;;11.30;68.95;99897.94;7765718;32;39175;-76
2022/10/15 04:17:09;;;;;;;423.13;30.75;;;;;;;11.76;67.22;99889.69;7765547;32;39931;-77
2022/10/15 04:21:25;;;;;;;189.35;23.60;;;;;;;11.44;68.84;99884.56;7765524;32;38074;-77
2022/10/15 04:25:41;;;;;;;435.00;30.27;;;;;;;10.98;70.39;99900.94;7786945;32;38071;-77
2022/10/15 04:29:57;;;;;;;159.50;25.10;;;;;;;11.28;69.41;99900.13;7792691;32;39387;-77
2022/10/15 04:34:13;;;;;;;96.78;22.13;;;;;;;11.13;70.14;99897.41;7792652;32;40015;-76
2022/10/15 04:38:29;;;;;;;36.28;20.10;;;;;;;11.25;70.11;99896.03;7792561;32;37932;-77
2022/10/15 04:42:45;;;;;;;46.42;23.75;;;;;;;11.21;70.01;99894.94;7777895;32;37162;-77
2022/10/15 04:47:01;;;;;;;192.65;23.05;;;;;;;11.30;70.66;99894.37;7778249;32;39972;-77
2022/10/15 04:51:20;;;;;;;331.65;28.52;;;;;;;11.14;70.68;99908.03;7792396;32;40762;-77
2022/10/15 04:55:36;;;;;;;100.62;21.23;;;;;;;11.27;69.80;99898.47;7792193;32;37958;-77
2022/10/15 04:59:52;;;;;;;116.43;24.70;;;;;;;11.32;69.68;99900.41;7790110;32;37324;-77
2022/10/15 05:04:12;;;;;;;46.92;22.02;;;;;;;11.02;71.00;99904.75;7792358;32;39434;-77
2022/10/15 05:08:32;;;;;;;37.47;21.45;;;;;;;11.60;69.04;99908.00;7792115;32;39751;-77
2022/10/15 05:12:48;;;;;;;44.25;22.98;;;;;;;11.83;68.98;99903.84;7782931;32;37781;-77
2022/10/15 05:17:08;;;;;;;38.60;20.83;;;;;;;11.70;69.91;99895.44;7792151;32;37961;-76
2022/10/15 05:21:24;;;;;;;40.17;22.87;;;;;;;12.03;69.60;99880.31;7792208;32;39123;-77
2022/10/15 05:25:40;;;;;;;39.67;22.60;;;;;;;12.27;69.12;99872.28;7787827;32;40843;-76
2022/10/15 05:29:57;;;;;;;41.35;22.27;;;;;;;12.36;68.88;99867.84;7763917;32;37853;-74
2022/10/15 05:34:13;;;;;;;42.67;22.60;;;;;;;12.42;68.83;99865.94;7765068;32;37922;-77
2022/10/15 05:38:29;;;;;;;41.97;23.52;;;;;;;12.16;69.31;99874.25;7765059;32;39280;-77
2022/10/15 05:42:52;;;;;;;39.97;21.83;;;;;;;12.01;68.82;99888.78;7764723;32;40834;-76
2022/10/15 05:47:13;;;;;;;36.80;22.58;;;;;;;12.22;67.74;99894.19;7764614;32;38405;-77
2022/10/15 05:51:29;;;;;;;35.92;20.70;;;;;;;11.85;68.97;99884.47;7764705;32;36811;-77
2022/10/15 05:55:45;;;;;;;39.08;20.30;;;;;;;12.30;68.05;99876.41;7784014;32;39121;-78
2022/10/15 06:00:01;;;;;;;36.13;20.77;;;;;;;12.50;67.97;99880.91;7791575;32;39609;-79
2022/10/15 06:04:17;;;;;;;37.13;20.62;;;;;;;12.61;67.84;99881.66;7764533;32;38637;-78
2022/10/15 06:08:33;;;;;;;38.55;21.40;;;;;;;12.51;68.46;99905.25;7785149;32;36861;-78
2022/10/15 06:12:50;;;;;;;31.73;19.67;;;;;;;12.66;68.45;99915.28;7791364;32;39186;-78
2022/10/15 06:17:06;;;;;;;38.80;19.42;;;;;;;12.92;67.56;99898.72;7791159;32;40793;-79
2022/10/15 06:21:22;;;;;;;38.78;19.25;;;;;;;13.07;66.92;99905.97;7791040;32;38686;-77
2022/10/15 06:25:38;;;;;;;34.97;19.37;;;;;;;13.01;66.94;99913.41;7791160;32;37109;-77
2022/10/15 06:29:54;;;;;;;34.35;18.12;;;;;;;13.09;66.64;99915.56;7790901;32;39252;-78
2022/10/15 06:34:10;;;;;;;35.92;18.77;;;;;;;13.34;65.89;99916.47;7790745;32;39991;-80
2022/10/15 06:38:29;;;;;;;33.70;19.23;;;;;;;13.44;65.85;99910.09;7790479;32;38772;-77
2022/10/15 06:42:45;;;;;;;37.47;18.30;;;;;;;13.44;65.51;99921.84;7790862;32;36876;-79
2022/10/15 06:47:01;;;;;;;32.90;18.55;;;;;;;13.08;66.67;99922.13;7790595;32;38952;-75
2022/10/15 06:51:17;;;;;;;33.53;16.15;;;;;;;13.18;67.27;99929.44;7790389;32;40508;-74
2022/10/15 06:55:34;;;;;;;34.72;16.50;;;;;;;13.65;68.21;99916.19;7790203;32;37861;-75
2022/10/15 06:59:51;;;;;;;34.72;18.33;;;;;;;14.09;68.79;99915.97;7790235;32;37365;-79
2022/10/15 07:04:07;;;;;;;31.60;17.27;;;;;;;14.23;63.58;99921.56;7790178;32;38924;-79
2022/10/15 07:08:24;;;;;;;32.60;17.25;;;;;;;14.36;63.25;99921.97;7793121;32;40553;-79
2022/10/15 07:12:40;;;;;;;33.30;16.65;;;;;;;14.41;63.42;99927.38;7793695;32;38090;-79
2022/10/15 07:16:57;;;;;;;33.15;16.85;;;;;;;14.47;62.52;99920.75;7793719;32;37212;-80
2022/10/15 07:21:14;;;;;;;31.30;16.95;;;;;;;14.48;62.35;99922.34;7793814;32;39302;-74
2022/10/15 07:25:30;;;;;;;32.40;16.87;;;;;;;14.65;62.92;99927.38;7793671;32;39946;-79
2022/10/15 07:29:46;;;;;;;32.63;16.60;;;;;;;14.97;61.99;99928.56;7793343;32;38792;-79
2022/10/15 07:34:02;;;;;;;28.48;15.40;;;;;;;15.06;61.12;99920.47;7793485;32;37991;-79
2022/10/15 07:38:18;;;;;;;28.83;15.27;;;;;;;15.28;60.72;99923.41;7793454;32;40007;-80
2022/10/15 07:42:34;;;;;;;28.67;15.48;;;;;;;15.52;60.58;99917.78;7793298;32;40835;-79
2022/10/15 07:46:50;;;;;;;28.83;15.23;;;;;;;15.65;60.82;99924.41;7793689;32;36288;-79
2022/10/15 07:51:06;;;;;;;26.02;14.10;;;;;;;16.00;59.04;99926.84;7793364;32;37054;-80
2022/10/15 07:55:22;;;;;;;24.52;14.18;;;;;;;16.19;58.02;99935.00;7793227;32;40169;-79
2022/10/15 07:59:38;;;;;;;24.05;14.38;;;;;;;16.36;57.44;99932.44;7793064;32;40028;-79
2022/10/15 08:03:54;;;;;;;28.15;14.23;;;;;;;16.53;56.83;99929.84;7792806;32;38860;-79
2022/10/15 08:08:10;;;;;;;21.83;13.25;;;;;;;16.55;56.51;99931.50;7792777;32;37289;-79
2022/10/15 08:12:26;;;;;;;26.95;14.93;;;;;;;16.72;56.38;99934.41;7792893;32;39358;-79
2022/10/15 08:16:42;;;;;;;23.08;14.40;;;;;;;16.81;55.92;99935.31;7792335;32;40834;-79
2022/10/15 08:21:01;;;;;;;21.37;12.77;;;;;;;16.98;56.26;99947.63;7792620;32;38062;-79
2022/10/15 08:25:17;;;;;;;20.20;12.73;;;;;;;17.25;55.22;99939.28;7792809;32;37958;-79
2022/10/15 08:29:33;;;;;;;23.38;13.25;;;;;;;17.68;54.66;99929.66;7792651;32;40021;-79
2022/10/15 08:33:49;;;;;;;20.85;12.68;;;;;;;17.80;53.82;99927.13;7792596;32;40781;-79
2022/10/15 08:38:05;;;;;;;20.33;12.63;;;;;;;18.20;52.97;99923.59;7792222;32;38774;-78
2022/10/15 08:42:36;;;;;;;21.05;11.85;;;;;;;18.39;52.63;99920.56;7792412;32;37165;-79
2022/10/15 08:46:58;;;;;;;27.27;13.07;;;;;;;18.50;51.77;99937.63;7780333;32;39161;-78
2022/10/15 08:51:23;;;;;;;23.05;12.27;;;;;;;18.96;51.42;99939.03;7779232;32;40750;-79
2022/10/15 08:55:43;;;;;;;21.90;11.80;;;;;;;19.20;50.45;99940.50;7779038;32;37776;-79
2022/10/15 09:00:11;;;;;;;23.35;11.43;;;;;;;19.56;50.17;99934.56;7778936;32;36788;-79
2022/10/15 09:04:46;;;;;;;21.27;11.40;;;;;;;19.92;48.23;99929.78;7792511;32;39204;-79
2022/10/15 09:09:13;;;;;;;17.12;10.25;;;;;;;20.47;48.09;99945.47;7792188;32;40003;-80
2022/10/15 09:13:39;;;;;;;15.55;7.97;;;;;;;20.72;45.31;99937.38;7792326;32;38016;-79
2022/10/15 09:17:55;;;;;;;15.63;7.68;;;;;;;21.36;40.61;99941.75;7792488;32;37061;-80
2022/10/15 09:22:17;;;;;;;14.77;7.37;;;;;;;21.18;41.84;99952.19;7792299;32;39415;-79
2022/10/15 09:26:51;;;;;;;12.70;6.82;;;;;;;21.54;41.20;99942.41;7778545;32;39603;-80
2022/10/15 09:31:09;;;;;;;14.25;6.82;;;;;;;21.81;40.25;99942.94;7791149;32;38666;-81
2022/10/15 09:35:36;;;;;;;13.52;6.85;;;;;;;21.80;37.18;99947.69;7792205;32;37040;-80
2022/10/15 09:40:13;;;;;;;14.40;7.00;;;;;;;21.42;38.05;99945.94;7792192;32;39238;-80
2022/10/15 09:44:36;;;;;;;19.23;7.47;;;;;;;21.43;40.28;99960.59;7792053;32;39895;-80
2022/10/15 09:49:07;;;;;;;15.15;6.85;;;;;;;21.27;38.76;99941.81;7777892;32;37923;-80
2022/10/15 09:53:44;;;;;;;13.80;6.82;;;;;;;21.18;39.78;99943.88;7791963;32;37148;-79
2022/10/15 09:58:26;;;;;;;14.87;6.82;;;;;;;21.26;37.01;99948.50;7778328;32;39980;-80
2022/10/15 10:02:42;;;;;;;10.50;5.90;;;;;;;21.54;38.16;99956.25;7791713;32;40823;-80
2022/10/15 10:07:01;;;;;;;15.55;5.68;;;;;;;21.86;35.50;99959.38;7791140;32;37901;-80
2022/10/15 10:11:18;;;;;;;10.63;4.40;;;;;;;21.59;35.36;99944.94;7777748;32;37095;-81
2022/10/15 10:15:40;;;;;;;11.98;5.90;;;;;;;22.19;35.79;99944.59;7777296;32;39241;-81
2022/10/15 10:20:23;;;;;;;10.82;5.93;;;;;;;21.59;35.86;99936.62;7778036;32;39789;-80
2022/10/15 10:24:39;;;;;;;12.48;5.95;;;;;;;21.75;35.79;99942.34;7788653;32;37708;-81
2022/10/15 10:28:56;;;;;;;9.88;5.40;;;;;;;21.49;36.19;99945.38;7790998;32;37039;-81
2022/10/15 10:33:33;;;;;;;11.20;5.45;;;;;;;21.03;37.08;99933.41;7778656;32;39795;-76
2022/10/15 10:37:50;;;;;;;11.45;5.68;;;;;;;21.28;37.85;99929.56;7790811;32;40019;-75
2022/10/15 10:42:13;;;;;;;10.18;5.78;;;;;;;21.32;38.24;99941.59;7793445;32;38004;-83
2022/10/15 10:46:29;;;;;;;25.00;6.57;;;;;;;21.42;38.33;99922.91;7780923;32;37041;-82
2022/10/15 10:50:45;;;;;;;12.57;6.53;;;;;;;21.12;38.60;99921.06;7794158;32;39964;-82
2022/10/15 10:55:15;;;;;;;11.07;6.18;;;;;;;21.76;36.97;99916.22;7794059;32;40035;-82
2022/10/15 10:59:36;;;;;;;12.05;5.15;;;;;;;21.82;36.93;99914.03;7781549;32;38396;-82
2022/10/15 11:03:52;;;;;;;11.85;5.05;;;;;;;21.13;37.80;99916.34;7780505;32;37770;-83
2022/10/15 11:08:40;;;;;;;9.65;4.93;;;;;;;20.92;37.82;99911.63;7793663;32;38850;-80
2022/10/15 11:13:14;;;;;;;9.35;4.97;;;;;;;21.20;36.79;99922.16;7772852;32;39873;-78
2022/10/15 11:17:35;;;;;;;11.00;4.82;;;;;;;21.01;38.00;99919.88;7777441;32;37845;-79
2022/10/15 11:22:13;;;;;;;8.18;4.65;;;;;;;20.85;39.22;99918.84;7771237;32;37591;-79
2022/10/15 11:26:47;;;;;;;11.95;4.65;;;;;;;21.22;38.04;99908.75;7774115;32;39970;-79
2022/10/15 11:31:56;;;;;;;12.15;4.78;;;;;;;20.85;37.81;99899.47;7767148;32;40570;-80
2022/10/15 11:36:31;;;;;;;;;;;;;;;20.21;38.58;99899.38;7766477;32;38402;-78
2022/10/15 11:41:12;;;;;;;11.57;4.95;;;;;;;20.27;39.83;99888.91;7766431;32;36464;-80
2022/10/15 11:45:53;;;;;;;14.25;4.78;;;;;;;20.42;39.21;99887.50;7766391;32;38955;-79
2022/10/15 11:50:33;;;;;;;14.82;5.87;;;;;;;20.09;39.87;99890.94;7766078;32;39951;-80
2022/10/15 11:55:00;;;;;;;12.98;5.18;;;;;;;20.11;40.13;99883.16;7776497;32;37935;-78
2022/10/15 11:59:18;;;;;;;10.80;4.78;;;;;;;19.70;40.69;99868.81;7793531;32;36913;-80
2022/10/15 12:03:44;;;;;;;16.37;5.57;;;;;;;19.39;41.49;99880.13;7793156;32;39584;-80
2022/10/15 12:08:01;;;;;;;9.75;4.95;;;;;;;19.77;40.63;99873.88;7778792;32;40862;-80
2022/10/15 12:12:39;;;;;;;9.77;4.70;;;;;;;19.35;41.56;99876.41;7777773;32;37545;-80
2022/10/15 12:17:09;;;;;;;11.82;5.07;;;;;;;19.82;41.23;99868.16;7791911;32;37727;-80
2022/10/15 12:21:37;;;;;;;12.90;4.72;;;;;;;19.89;41.22;99870.41;7792072;32;40807;-80
2022/10/15 12:25:53;;;;;;;13.85;4.22;;;;;;;19.96;40.13;99861.59;7792992;32;40206;-80
2022/10/15 12:30:11;;;;;;;8.00;4.12;;;;;;;20.30;40.40;99860.56;7792809;32;38095;-81
2022/10/15 12:34:39;;;;;;;9.60;4.43;;;;;;;20.33;39.85;99850.78;7792930;32;37006;-84
2022/10/15 12:39:03;;;;;;;11.75;4.22;;;;;;;20.15;39.84;99861.97;7792924;32;40161;-83
2022/10/15 12:43:50;;;;;;;7.93;4.22;;;;;;;19.92;39.67;99863.37;7792842;32;39972;-83
2022/10/15 12:48:15;;;;;;;6.95;3.90;;;;;;;19.86;39.71;99863.56;7779454;32;37863;-87
2022/10/15 12:53:33;;;;;;;13.18;6.03;;;;;;;20.11;39.54;99858.25;7792240;32;37636;-80
2022/10/15 12:58:00;;;;;;;7.82;4.35;;;;;;;19.84;40.57;99865.84;7647588;32;40179;-80
2022/10/15 13:02:40;;;;;;;10.48;4.40;;;;;;;19.95;39.26;99874.59;7726115;32;40763;-81
2022/10/15 13:07:02;;;;;;;8.75;4.78;;;;;;;19.69;39.89;99864.41;7765053;32;38659;-81
2022/10/15 13:11:27;;;;;;;8.77;4.28;;;;;;;19.55;40.14;99854.72;7764172;32;37069;-81
2022/10/15 13:15:51;;;;;;;7.32;3.90;;;;;;;19.94;39.07;99863.84;7768613;32;40086;-80
2022/10/15 13:20:33;;;;;;;13.50;5.22;;;;;;;19.84;40.34;99860.31;7781585;32;40870;-80
2022/10/15 13:24:49;;;;;;;16.35;8.43;;;;;;;20.00;39.55;99866.09;7764946;32;37537;-80
2022/10/15 13:29:05;;;;;;;9.82;4.55;;;;;;;20.15;40.25;99856.41;7765031;32;36695;-80
2022/10/15 13:33:21;;;;;;;11.90;4.57;;;;;;;19.99;39.43;99871.97;7764971;32;38923;-81
2022/10/15 13:37:39;;;;;;;13.10;4.75;;;;;;;20.32;39.09;99863.81;7771176;32;40473;-81
2022/10/15 13:42:20;;;;;;;12.95;4.75;;;;;;;20.27;40.30;99872.31;7778147;32;37553;-81
2022/10/15 13:46:38;;;;;;;18.37;4.90;;;;;;;20.15;40.49;99870.25;7779154;32;37621;-84
2022/10/15 13:51:03;;;;;;;8.73;4.55;;;;;;;19.90;41.42;99866.47;7770160;32;40034;-80
2022/10/15 13:55:25;;;;;;;8.85;4.78;;;;;;;20.48;39.97;99858.50;7774310;32;40886;-80
2022/10/15 13:59:43;;;;;;;9.25;4.80;;;;;;;20.49;38.85;99860.12;7751601;32;37585;-80
2022/10/15 14:04:01;;;;;;;10.95;5.12;;;;;;;20.49;39.65;99853.75;7750193;32;36672;-80
2022/10/15 14:08:26;;;;;;;14.95;5.32;;;;;;;20.42;40.03;99857.06;7772784;32;40217;-80
2022/10/15 14:12:42;;;;;;;11.43;6.20;;;;;;;20.12;40.46;99851.56;7764150;32;40793;-80
2022/10/15 14:17:01;;;;;;;26.27;12.40;;;;;;;20.29;41.17;99849.84;7770539;32;38005;-80
2022/10/15 14:21:29;;;;;;;25.75;13.48;;;;;;;19.99;40.42;99838.75;7774555;32;37735;-80
2022/10/15 14:25:50;;;;;;;27.48;12.82;;;;;;;20.21;40.25;99849.56;7750887;32;40274;-80
2022/10/15 14:30:17;;;;;;;8.15;5.10;;;;;;;19.87;41.24;99845.03;7750242;32;40196;-82
2022/10/15 14:34:33;;;;;;;15.07;7.72;;;;;;;19.48;42.32;99842.22;7763231;32;37776;-81
2022/10/15 14:38:52;;;;;;;10.95;4.72;;;;;;;19.73;41.47;99839.69;7784957;32;37645;-79
2022/10/15 14:43:16;;;;;;;9.80;4.57;;;;;;;19.39;42.77;99835.91;7790571;32;38827;-79
2022/10/15 14:47:33;;;;;;;9.55;4.82;;;;;;;19.83;41.41;99838.53;7774470;32;39898;-80
2022/10/15 14:51:54;;;;;;;13.90;4.62;;;;;;;19.40;42.26;99842.25;7763020;32;38404;-81
2022/10/15 14:56:18;;;;;;;14.02;4.70;;;;;;;19.29;42.10;99844.53;7767806;32;36231;-80
2022/10/15 15:00:41;;;;;;;10.38;4.68;;;;;;;19.22;43.15;99841.47;7789549;32;39976;-79
2022/10/15 15:05:13;;;;;;;12.37;5.07;;;;;;;19.13;42.81;99836.78;7776632;32;39939;-80
2022/10/15 15:09:29;;;;;;;8.93;4.80;;;;;;;19.23;42.47;99832.03;7788471;32;37833;-79
2022/10/15 15:13:47;;;;;;;9.52;5.07;;;;;;;19.14;42.85;99837.59;7788589;32;37656;-81
2022/10/15 15:18:03;;;;;;;8.27;4.47;;;;;;;19.30;41.91;99835.13;7775444;32;38623;-80
2022/10/15 15:22:33;;;;;;;9.00;4.20;;;;;;;19.48;41.59;99839.44;7788059;32;40898;-80
2022/10/15 15:26:49;;;;;;;11.27;4.40;;;;;;;19.40;41.03;99831.19;7767365;32;38374;-80
2022/10/15 15:31:14;;;;;;;10.85;4.60;;;;;;;18.84;42.74;99839.44;7766553;32;37486;-79
2022/10/15 15:35:56;;;;;;;9.27;4.53;;;;;;;18.65;42.78;99843.28;7765699;32;39923;-79
2022/10/15 15:40:12;;;;;;;14.07;5.00;;;;;;;18.67;41.98;99857.56;7785327;32;40753;-81
2022/10/15 15:44:28;;;;;;;11.27;5.20;;;;;;;18.95;41.69;99854.50;7793584;32;37911;-81
2022/10/15 15:48:44;;;;;;;14.30;4.78;;;;;;;19.25;41.01;99858.22;7771949;32;37057;-81
2022/10/15 15:53:01;;;;;;;10.75;4.35;;;;;;;18.98;42.48;99859.38;7763950;32;40429;-80
2022/10/15 15:57:17;;;;;;;7.12;4.12;;;;;;;19.29;41.15;99866.66;7776238;32;40649;-81
2022/10/15 16:01:33;;;;;;;6.85;3.97;;;;;;;19.25;41.59;99874.78;7793252;32;37552;-82
2022/10/15 16:05:50;;;;;;;10.15;4.72;;;;;;;19.05;41.92;99884.56;7780272;32;36635;-80
2022/10/15 16:10:11;;;;;;;10.20;4.97;;;;;;;19.03;42.04;99889.63;7780383;32;40784;-80
2022/10/15 16:14:27;;;;;;;11.55;4.78;;;;;;;19.08;42.81;99883.91;7792919;32;40785;-79
2022/10/15 16:18:43;;;;;;;9.65;5.18;;;;;;;19.07;42.72;99892.53;7772338;32;37944;-79
2022/10/15 16:22:59;;;;;;;9.75;4.57;;;;;;;19.25;42.57;99898.88;7765891;32;37092;-80
2022/10/15 16:27:15;;;;;;;9.65;4.68;;;;;;;19.29;42.07;99897.06;7772431;32;39418;-83
2022/10/15 16:31:35;;;;;;;12.98;4.80;;;;;;;19.06;43.40;99900.00;7785340;32;40834;-81
2022/10/15 16:35:52;;;;;;;14.87;5.20;;;;;;;18.64;44.71;99918.97;7790993;32;38374;-81
2022/10/15 16:40:09;;;;;;;14.10;5.22;;;;;;;19.09;43.54;99918.72;7764986;32;37810;-81
2022/10/15 16:44:25;;;;;;;9.02;5.30;;;;;;;18.97;42.68;99915.75;7765544;32;39074;-80
2022/10/15 16:48:41;;;;;;;10.48;5.50;;;;;;;18.91;44.80;99919.84;7784738;32;39810;-80
2022/10/15 16:52:57;;;;;;;13.45;5.70;;;;;;;18.89;43.61;99925.69;7792525;32;38388;-80
2022/10/15 16:57:13;;;;;;;10.13;4.82;;;;;;;18.61;43.64;99930.69;7782517;32;36658;-81
2022/10/15 17:01:29;;;;;;;11.90;4.87;;;;;;;18.45;43.50;99937.78;7765485;32;38901;-82
2022/10/15 17:05:45;;;;;;;8.02;4.20;;;;;;;18.84;42.01;99942.41;7765200;32;39893;-81
2022/10/15 17:10:01;;;;;;;10.13;5.03;;;;;;;18.67;43.51;99945.94;7791881;32;38713;-81
2022/10/15 17:14:17;;;;;;;10.43;5.28;;;;;;;18.75;43.37;99952.63;7792345;32;37753;-81
2022/10/15 17:18:33;;;;;;;11.15;5.35;;;;;;;18.98;43.23;99958.84;7773886;32;40059;-80
2022/10/15 17:22:49;;;;;;;10.82;5.80;;;;;;;18.68;43.68;99968.81;7765084;32;39955;-80
2022/10/15 17:27:06;;;;;;;19.98;7.30;;;;;;;18.98;43.81;99969.87;7765566;32;37919;-80
2022/10/15 17:31:24;;;;;;;12.25;6.32;;;;;;;18.77;44.36;99981.53;7764760;32;37272;-81
2022/10/15 17:35:40;;;;;;;11.20;5.70;;;;;;;18.71;44.52;99985.59;7765514;32;40161;-81
2022/10/15 17:39:57;;;;;;;17.10;5.53;;;;;;;18.63;45.24;99991.91;7791859;32;40771;-82
2022/10/15 17:44:13;;;;;;;12.43;5.47;;;;;;;18.72;45.26;99978.91;7792082;32;37597;-82
2022/10/15 17:48:30;;;;;;;13.73;6.25;;;;;;;18.73;45.38;99988.00;7769958;32;37056;-81
2022/10/15 17:52:46;;;;;;;13.65;6.50;;;;;;;18.45;46.30;99993.78;7764568;32;39353;-82
2022/10/15 17:57:02;;;;;;;12.77;6.70;;;;;;;18.67;45.93;100003.91;7775290;32;39918;-81
2022/10/15 18:01:29;;;;;;;13.85;6.28;;;;;;;18.50;46.28;100003.88;7791702;32;38057;-83
2022/10/15 18:06:11;;;;;;;14.85;6.28;;;;;;;18.73;45.45;100016.47;7764278;32;266592;-81
2022/10/15 18:10:27;;;;;;;11.20;5.90;;;;;;;18.20;47.13;100020.97;7764363;32;40033;-80
2022/10/15 18:14:43;;;;;;;17.35;6.47;;;;;;;18.39;46.24;100011.62;7761280;32;39974;-79
2022/10/15 18:18:59;;;;;;;17.90;6.90;;;;;;;18.41;46.33;100000.28;7785342;32;38872;-82
2022/10/15 18:23:15;;;;;;;12.20;6.45;;;;;;;18.00;46.38;100011.28;7773773;32;36966;-81
2022/10/15 18:27:32;;;;;;;17.85;7.07;;;;;;;18.51;46.10;100003.56;7786816;32;38724;-82
2022/10/15 18:31:48;;;;;;;12.68;6.25;;;;;;;18.02;46.45;100011.81;7764487;32;40788;-82
2022/10/15 18:36:14;;;;;;;15.98;6.57;;;;;;;18.24;46.76;99999.06;7769795;32;38520;-81
2022/10/15 18:40:34;;;;;;;14.30;6.15;;;;;;;18.34;46.29;99998.78;7769272;32;36459;-82
2022/10/15 18:44:55;;;;;;;15.80;7.03;;;;;;;17.99;46.70;99989.56;7763953;32;40009;-85
2022/10/15 18:49:13;;;;;;;12.93;6.90;;;;;;;18.22;46.28;99998.56;7790669;32;40018;-84
2022/10/15 18:53:29;;;;;;;12.75;6.55;;;;;;;18.26;46.24;99994.03;7790441;32;37949;-84
2022/10/15 18:57:45;;;;;;;15.77;6.72;;;;;;;18.02;47.15;99997.16;7777085;32;36680;-82
2022/10/15 19:02:01;;;;;;;17.42;6.97;;;;;;;17.93;46.87;100008.16;7765285;32;39371;-82
2022/10/15 19:06:19;;;;;;;17.08;7.03;;;;;;;18.35;46.28;100014.22;7774621;32;39831;-81
2022/10/15 19:10:35;;;;;;;11.98;6.62;;;;;;;18.10;47.52;100028.72;7767522;32;38382;-80
2022/10/15 19:14:51;;;;;;;13.68;7.78;;;;;;;17.94;48.11;100048.41;7766689;32;36657;-80
2022/10/15 19:19:07;;;;;;;14.25;7.18;;;;;;;18.11;47.93;100044.13;7766484;32;39079;-80
2022/10/15 19:23:23;;;;;;;16.73;7.53;;;;;;;18.21;47.59;100041.09;7775000;32;39658;-80
2022/10/15 19:27:40;;;;;;;14.63;7.30;;;;;;;17.94;48.76;100053.13;7793195;32;38078;-80
2022/10/15 19:31:56;;;;;;;13.40;7.00;;;;;;;18.09;48.27;100044.47;7793370;32;36968;-80
2022/10/15 19:36:19;;;;;;;13.55;6.30;;;;;;;18.09;48.09;100054.66;7793755;32;39172;-80
2022/10/15 19:40:38;;;;;;;;;;;;;;;18.11;47.12;100046.87;7772208;32;40831;-79
2022/10/15 19:44:55;;;;;;;11.35;6.70;;;;;;;18.39;46.36;100042.81;7767079;32;38290;-78
2022/10/15 19:49:12;;;;;;;13.68;6.32;;;;;;;18.05;47.26;100054.47;7793184;32;36720;-80
2022/10/15 19:53:29;;;;;;;22.58;7.25;;;;;;;18.13;47.02;100050.16;7793552;32;39234;-80
2022/10/15 19:57:45;;;;;;;16.73;6.90;;;;;;;17.82;48.16;100057.22;7792787;32;39964;-79
2022/10/15 20:02:01;;;;;;;16.08;7.65;;;;;;;18.05;47.97;100059.19;7766112;32;37981;-80
2022/10/15 20:06:18;;;;;;;14.00;6.75;;;;;;;17.93;48.28;100066.06;7773744;32;37801;-79